createdAt,value
2019-06-20T20:00:27.190Z,65.98
2019-06-20T20:02:55.261Z,47.11
2019-06-20T20:05:23.840Z,44.45
2019-06-20T20:07:52.325Z,42.76
2019-06-20T20:10:24.797Z,41.98
2019-06-20T20:13:01.231Z,40.97
2019-06-20T20:15:29.657Z,41.29
2019-06-20T20:17:58.116Z,40.80
2019-06-20T20:20:26.775Z,40.33
2019-06-20T20:22:56.434Z,39.59
2019-06-20T20:25:24.820Z,39.70
2019-06-20T20:27:53.617Z,39.08
2019-06-20T20:30:21.821Z,38.67
2019-06-20T20:32:50.149Z,38.50
2019-06-20T20:35:34.275Z,38.27
2019-06-20T20:37:48.176Z,38.25
2019-06-20T20:40:16.572Z,38.16
2019-06-20T20:42:44.949Z,37.97
2019-06-20T20:45:13.657Z,37.83
2019-06-20T20:47:41.946Z,37.52
2019-06-20T20:50:10.078Z,37.39
2019-06-20T20:52:39.124Z,37.58
2019-06-20T20:55:08.527Z,37.30
2019-06-20T20:57:37.126Z,37.39
2019-06-20T21:00:05.823Z,37.29
2019-06-20T21:02:34.033Z,36.89
2019-06-20T21:05:02.429Z,37.04
2019-06-20T21:07:32.308Z,36.74
2019-06-20T21:10:00.844Z,37.43
2019-06-20T21:12:28.993Z,37.38
2019-06-20T21:14:57.272Z,37.26
2019-06-20T21:17:25.898Z,36.72
2019-06-20T21:19:54.607Z,36.41
2019-06-20T21:22:23.615Z,36.73
2019-06-20T21:24:52.366Z,36.37
2019-06-20T21:27:21.486Z,36.16
2019-06-20T21:29:50.031Z,36.38
2019-06-20T21:32:18.208Z,36.38
2019-06-20T21:34:46.376Z,36.11
2019-06-20T21:37:14.887Z,35.87
2019-06-20T21:39:44.166Z,35.80
2019-06-20T21:42:12.936Z,35.54
2019-06-20T21:44:41.938Z,35.66
2019-06-20T21:47:10.164Z,35.48
2019-06-20T21:53:35.170Z,34.97
2019-06-20T21:56:45.588Z,35.10
2019-06-20T21:59:14.044Z,35.12
2019-06-20T22:01:42.274Z,34.84
2019-06-20T22:04:11.190Z,35.74
2019-06-20T22:06:39.574Z,35.36
2019-06-20T22:09:08.289Z,35.37
2019-06-20T22:11:36.808Z,35.78
2019-06-20T22:14:05.609Z,35.66
2019-06-20T22:16:34.009Z,35.39
2019-06-20T22:19:02.989Z,34.88
2019-06-20T22:21:32.150Z,35.08
2019-06-20T22:24:00.795Z,34.87
2019-06-20T22:26:29.547Z,35.10
2019-06-20T22:30:48.420Z,34.45
2019-06-20T22:33:25.991Z,34.27
2019-06-20T22:35:55.027Z,34.94
2019-06-20T22:38:24.143Z,34.93
2019-06-20T22:40:53.287Z,34.95
2019-06-20T22:43:21.884Z,34.74
2019-06-20T22:45:50.185Z,34.70
2019-06-20T22:48:18.472Z,34.42
2019-06-20T22:50:46.905Z,34.58
2019-06-20T22:53:15.389Z,34.58
2019-06-20T22:55:43.792Z,34.57
2019-06-20T22:58:12.342Z,34.17
2019-06-20T23:00:40.951Z,33.61
2019-06-20T23:03:10.772Z,33.89
2019-06-20T23:05:39.415Z,34.16
2019-06-20T23:08:07.616Z,33.97
2019-06-20T23:10:36.085Z,33.94
2019-06-20T23:13:04.670Z,33.97
2019-06-20T23:15:33.266Z,34.15
2019-06-20T23:18:01.491Z,34.39
2019-06-20T23:20:31.375Z,34.58
2019-06-20T23:22:59.570Z,34.65
2019-06-20T23:25:28.093Z,34.16
2019-06-20T23:27:56.822Z,34.52
2019-06-20T23:30:25.461Z,33.99
2019-06-20T23:32:54.181Z,34.04
2019-06-20T23:35:23.410Z,34.03
2019-06-20T23:37:51.534Z,34.13
2019-06-20T23:40:19.747Z,34.17
2019-06-20T23:42:48.718Z,34.20
2019-06-20T23:45:16.972Z,34.94
2019-06-20T23:47:45.046Z,35.02
2019-06-20T23:50:19.515Z,35.01
2019-06-20T23:52:51.090Z,34.49
2019-06-20T23:55:19.436Z,34.35
2019-06-20T23:57:48.016Z,34.07
